Time;durP1;ratioP1;P1;durP2;ratioP2;P2;SDS_P1;SDS_P2;PMS_P1;PMS_P2;Temp;Humidity;BMP_temperature;BMP_pressure;BME280_temperature;BME280_humidity;BME280_pressure;Samples;Min_cycle;Max_cycle;Signal;HPM_P1;HPM_P2
2022/12/12 00:01:51;;;;;;;36.20;21.20;;;0.60;71.00;;;;;;5098926;28;20550;-65
2022/12/12 00:04:18;;;;;;;31.23;20.20;;;0.60;64.30;;;;;;5098365;28;20534;-65
2022/12/12 00:06:45;;;;;;;29.20;18.20;;;0.50;49.70;;;;;;5098856;28;20518;-65
2022/12/12 00:09:13;;;;;;;30.87;20.10;;;0.60;73.20;;;;;;5098674;28;20501;-65
2022/12/12 00:11:41;;;;;;;29.70;18.47;;;0.50;61.50;;;;;;5098576;28;20470;-65
2022/12/12 00:14:09;;;;;;;30.27;18.77;;;0.50;55.30;;;;;;5097732;28;20565;-65
2022/12/12 00:16:36;;;;;;;29.27;19.30;;;0.50;86.90;;;;;;5098477;28;20538;-65
2022/12/12 00:19:03;;;;;;;28.30;18.60;;;0.50;99.20;;;;;;5097552;28;20551;-65
2022/12/12 00:21:30;;;;;;;31.67;19.17;;;0.50;99.90;;;;;;5098434;28;20937;-65
2022/12/12 00:23:58;;;;;;;28.87;18.83;;;0.50;99.90;;;;;;5098177;28;20940;-65
2022/12/12 00:26:29;;;;;;;34.77;20.80;;;0.50;99.90;;;;;;5098737;28;20550;-65
2022/12/12 00:28:59;;;;;;;32.97;19.07;;;0.50;99.90;;;;;;5098511;28;21567;-65
2022/12/12 00:31:26;;;;;;;32.63;19.87;;;0.50;99.90;;;;;;5098379;28;20477;-65
2022/12/12 00:33:53;;;;;;;31.30;20.27;;;0.60;99.90;;;;;;5098008;28;21009;-65
2022/12/12 00:36:23;;;;;;;36.37;20.00;;;0.50;90.20;;;;;;5098052;28;20567;-65
2022/12/12 00:38:52;;;;;;;36.70;21.73;;;0.50;81.80;;;;;;5098340;28;20554;-65
2022/12/12 00:41:20;;;;;;;31.93;20.13;;;0.50;47.20;;;;;;5098327;28;20558;-65
2022/12/12 00:43:48;;;;;;;28.80;18.57;;;0.50;76.20;;;;;;5098159;28;20554;-65
2022/12/12 00:46:19;;;;;;;29.87;19.23;;;0.50;79.10;;;;;;5097697;28;20507;-65
2022/12/12 00:48:46;;;;;;;30.13;19.40;;;0.50;98.60;;;;;;5098310;28;20880;-65
2022/12/12 00:51:19;;;;;;;32.27;20.07;;;0.50;97.50;;;;;;5097982;28;20555;-65
2022/12/12 00:53:47;;;;;;;32.10;19.93;;;0.50;97.70;;;;;;5097710;28;20518;-65
2022/12/12 00:56:15;;;;;;;30.50;19.30;;;0.50;99.90;;;;;;5098063;28;20456;-65
2022/12/12 00:58:42;;;;;;;29.37;20.10;;;0.50;99.90;;;;;;5097892;28;20865;-65
2022/12/12 01:01:11;;;;;;;32.87;20.40;;;0.50;99.90;;;;;;5097863;28;20563;-65
2022/12/12 01:03:41;;;;;;;26.43;19.80;;;0.50;99.90;;;;;;5097399;28;20551;-65
2022/12/12 01:06:10;;;;;;;30.17;19.30;;;0.50;99.90;;;;;;5097602;28;20952;-65
2022/12/12 01:08:37;;;;;;;31.17;19.90;;;0.50;99.90;;;;;;5097238;28;20550;-65
2022/12/12 01:11:05;;;;;;;29.97;21.17;;;0.50;99.90;;;;;;5097776;28;20812;-65
2022/12/12 01:13:33;;;;;;;30.17;19.93;;;0.50;99.90;;;;;;5097947;28;20524;-65
2022/12/12 01:16:00;;;;;;;30.60;19.10;;;0.50;99.90;;;;;;5097217;28;20481;-65
2022/12/12 01:18:27;;;;;;;27.70;18.60;;;0.50;99.90;;;;;;5097334;28;20526;-65
2022/12/12 01:20:56;;;;;;;27.40;18.83;;;0.50;99.90;;;;;;5097654;28;20467;-65
2022/12/12 01:23:23;;;;;;;30.83;20.83;;;0.40;99.90;;;;;;5096717;28;20499;-65
2022/12/12 01:25:59;;;;;;;30.80;19.60;;;0.50;99.90;;;;;;5097721;28;20446;-65
2022/12/12 01:28:26;;;;;;;29.90;18.50;;;0.50;99.90;;;;;;5097462;28;20566;-65
2022/12/12 01:30:53;;;;;;;29.80;18.13;;;0.50;99.90;;;;;;5097167;28;20515;-65
2022/12/12 01:33:20;;;;;;;31.30;20.10;;;0.40;99.90;;;;;;5097435;28;20887;-65
2022/12/12 01:35:47;;;;;;;28.27;18.30;;;0.40;99.90;;;;;;5097502;28;20531;-65
2022/12/12 01:38:16;;;;;;;32.10;19.40;;;0.40;99.90;;;;;;5097286;28;20524;-65
2022/12/12 01:40:43;;;;;;;25.20;16.63;;;0.40;99.90;;;;;;5096909;28;20499;-65
2022/12/12 01:43:12;;;;;;;35.53;21.10;;;0.50;99.90;;;;;;5097394;28;20909;-65
2022/12/12 01:46:18;;;;;;;31.50;19.90;;;0.40;99.90;;;;;;5097841;28;20460;-65
2022/12/12 01:48:49;;;;;;;31.87;19.67;;;0.40;99.90;;;;;;5097323;28;20566;-65
2022/12/12 01:51:19;;;;;;;36.63;21.23;;;0.40;99.90;;;;;;5097443;28;20753;-65
2022/12/12 01:53:49;;;;;;;36.47;21.30;;;0.40;99.90;;;;;;5097341;28;20837;-65
2022/12/12 01:56:20;;;;;;;30.93;19.37;;;0.40;99.90;;;;;;5097744;28;20792;-64
2022/12/12 01:58:50;;;;;;;31.50;20.20;;;0.40;99.90;;;;;;5098156;28;20467;-64
2022/12/12 02:01:19;;;;;;;27.33;19.40;;;0.40;99.90;;;;;;5098125;28;20805;-64
2022/12/12 02:03:48;;;;;;;29.67;20.53;;;0.40;99.90;;;;;;5097986;28;20438;-65
2022/12/12 02:06:20;;;;;;;29.70;20.50;;;0.40;99.90;;;;;;5097845;28;20467;-65
2022/12/12 02:08:49;;;;;;;32.17;20.27;;;0.40;99.90;;;;;;5097805;28;20537;-64
2022/12/12 02:11:17;;;;;;;34.63;20.40;;;0.40;99.90;;;;;;5098204;28;20477;-64
2022/12/12 02:13:45;;;;;;;35.20;21.37;;;0.40;99.90;;;;;;5097986;28;20455;-64
2022/12/12 02:16:21;;;;;;;32.60;20.00;;;0.40;99.90;;;;;;5097638;28;20838;-64
2022/12/12 02:18:55;;;;;;;32.00;20.40;;;0.40;99.90;;;;;;5097615;28;20503;-64
2022/12/12 02:21:26;;;;;;;35.03;22.23;;;0.40;99.90;;;;;;5097375;28;20471;-64
2022/12/12 02:24:37;;;;;;;37.07;20.53;;;0.40;99.90;;;;;;5098438;28;20524;-65
2022/12/12 02:27:36;;;;;;;30.73;19.23;;;0.30;99.90;;;;;;5098172;28;20460;-65
2022/12/12 02:30:21;;;;;;;32.50;20.50;;;0.40;99.90;;;;;;5079119;28;20548;-65
2022/12/12 02:33:07;;;;;;;31.33;20.00;;;0.40;99.90;;;;;;5097755;28;20439;-64
2022/12/12 02:35:48;;;;;;;32.53;20.20;;;0.40;99.90;;;;;;5097814;28;20555;-64
2022/12/12 02:38:22;;;;;;;33.10;21.10;;;0.40;99.90;;;;;;5100051;28;20438;-64
2022/12/12 02:41:01;;;;;;;36.37;21.00;;;0.40;99.90;;;;;;5101406;28;20756;-65
2022/12/12 02:43:39;;;;;;;33.03;20.10;;;0.40;99.90;;;;;;5101394;28;20910;-64
2022/12/12 02:46:14;;;;;;;32.60;20.23;;;0.40;99.90;;;;;;5100926;28;20556;-65
2022/12/12 02:48:48;;;;;;;33.30;21.33;;;0.40;99.90;;;;;;5101452;28;20513;-64
2022/12/12 02:51:18;;;;;;;33.70;20.23;;;0.40;99.90;;;;;;5101439;28;20488;-64
2022/12/12 02:53:45;;;;;;;34.20;22.37;;;0.30;99.90;;;;;;5101585;28;20458;-65
2022/12/12 02:56:50;;;;;;;33.37;19.80;;;0.40;1.00;;;;;;5100843;28;20513;-64
2022/12/12 02:59:22;;;;;;;31.47;20.90;;;0.40;1.00;;;;;;5101336;28;20470;-64
2022/12/12 03:02:25;;;;;;;36.50;19.83;;;0.30;99.90;;;;;;5101165;28;21056;-65
2022/12/12 03:08:11;;;;;;;34.27;21.00;;;0.30;1.00;;;;;;5100437;28;20440;-64
2022/12/12 03:10:50;;;;;;;33.47;19.73;;;0.30;1.00;;;;;;5101252;28;20467;-64
2022/12/12 03:13:30;;;;;;;32.07;19.83;;;0.30;1.00;;;;;;5100992;28;20839;-64
2022/12/12 03:16:08;;;;;;;31.87;19.23;;;0.30;1.00;;;;;;5100930;28;20460;-64
2022/12/12 03:18:43;;;;;;;30.33;19.63;;;0.30;1.00;;;;;;5100976;28;20442;-64
2022/12/12 03:21:17;;;;;;;31.90;20.60;;;0.20;1.00;;;;;;5100975;28;20898;-65
2022/12/12 03:23:47;;;;;;;36.77;20.83;;;0.30;1.00;;;;;;5101177;28;20558;-64
2022/12/12 03:26:17;;;;;;;34.60;19.60;;;0.30;1.00;;;;;;5100880;28;20567;-64
2022/12/12 03:28:51;;;;;;;31.07;20.73;;;0.30;1.00;;;;;;5100893;28;20459;-64
2022/12/12 03:31:23;;;;;;;33.67;20.87;;;0.30;1.00;;;;;;5099454;28;20558;-64
2022/12/12 03:33:55;;;;;;;31.07;22.00;;;0.30;1.00;;;;;;5100579;28;21040;-64
2022/12/12 03:36:27;;;;;;;33.30;20.80;;;0.30;1.00;;;;;;5100520;28;20438;-64
2022/12/12 03:38:58;;;;;;;36.50;20.97;;;0.30;1.00;;;;;;5100496;28;20558;-64
2022/12/12 03:41:29;;;;;;;31.40;20.23;;;0.20;99.90;;;;;;5100560;28;20467;-64
2022/12/12 03:44:01;;;;;;;37.00;23.07;;;0.20;1.00;;;;;;5100456;28;20473;-64
2022/12/12 03:46:34;;;;;;;30.80;20.27;;;0.30;99.90;;;;;;5100139;28;20449;-64
2022/12/12 03:49:07;;;;;;;30.00;20.63;;;0.30;1.00;;;;;;5100363;28;20524;-64
2022/12/12 03:51:39;;;;;;;31.53;19.50;;;0.30;1.00;;;;;;5100255;28;20810;-64
2022/12/12 03:54:10;;;;;;;34.60;20.93;;;0.30;1.00;;;;;;5100496;28;20584;-64
2022/12/12 03:56:43;;;;;;;32.13;19.80;;;0.30;1.00;;;;;;5100221;28;20436;-64
2022/12/12 03:59:14;;;;;;;33.17;21.93;;;0.30;1.00;;;;;;5099789;28;20503;-65
2022/12/12 04:01:47;;;;;;;38.80;22.13;;;0.30;1.00;;;;;;5099858;28;20513;-64
2022/12/12 04:04:18;;;;;;;31.17;21.53;;;0.30;1.00;;;;;;5099738;28;20462;-64
2022/12/12 04:06:53;;;;;;;36.40;19.60;;;0.30;1.00;;;;;;5099913;28;20467;-64
2022/12/12 04:15:28;;;;;;;29.20;20.13;;;0.20;1.00;;;;;;5099502;28;20521;-64
2022/12/12 04:18:06;;;;;;;33.10;21.93;;;0.20;1.00;;;;;;5098450;28;20606;-65
2022/12/12 04:23:37;;;;;;;33.67;21.17;;;0.20;1.00;;;;;;5099575;28;20424;-64
2022/12/12 04:29:02;;;;;;;33.60;20.17;;;0.20;1.00;;;;;;5098612;28;20435;-64
2022/12/12 04:31:34;;;;;;;32.67;20.80;;;0.20;1.00;;;;;;5098824;28;20533;-65
2022/12/12 04:34:05;;;;;;;31.27;21.10;;;0.10;1.00;;;;;;5098917;28;20553;-64
2022/12/12 04:36:34;;;;;;;35.37;21.63;;;0.20;1.00;;;;;;5099750;28;20474;-65
2022/12/12 04:39:05;;;;;;;35.33;21.50;;;0.20;1.00;;;;;;5098893;28;20528;-64
2022/12/12 04:41:35;;;;;;;33.80;21.80;;;0.20;1.00;;;;;;5099542;28;20555;-65
2022/12/12 04:44:05;;;;;;;33.73;21.77;;;0.30;1.00;;;;;;5099166;28;20514;-64
2022/12/12 04:46:34;;;;;;;33.67;22.00;;;0.20;1.00;;;;;;5099208;28;20555;-65
2022/12/12 04:49:06;;;;;;;37.53;22.00;;;0.20;4.40;;;;;;5099068;28;20507;-64
2022/12/12 04:51:37;;;;;;;35.00;21.83;;;0.20;4.60;;;;;;5099052;28;20566;-64
2022/12/12 04:54:10;;;;;;;34.83;22.30;;;0.20;25.40;;;;;;5099319;28;20924;-64
2022/12/12 04:56:39;;;;;;;36.73;22.07;;;0.30;62.60;;;;;;5098539;28;20528;-65
2022/12/12 04:59:07;;;;;;;33.57;21.50;;;0.20;66.80;;;;;;5098696;28;20555;-64
2022/12/12 05:01:44;;;;;;;39.07;22.10;;;0.30;99.90;;;;;;5098385;28;20547;-65
2022/12/12 05:04:19;;;;;;;36.83;22.67;;;0.20;83.70;;;;;;5099075;28;20755;-64
2022/12/12 05:06:51;;;;;;;33.07;22.47;;;0.20;49.50;;;;;;5098861;28;20916;-65
2022/12/12 05:09:20;;;;;;;36.43;22.40;;;0.20;42.90;;;;;;5099237;28;20493;-65
2022/12/12 05:11:48;;;;;;;34.73;22.37;;;0.10;69.30;;;;;;5098991;28;20570;-64
2022/12/12 05:14:17;;;;;;;39.67;23.73;;;0.10;99.90;;;;;;5098499;28;20590;-64
2022/12/12 05:16:47;;;;;;;32.50;21.03;;;0.10;99.90;;;;;;5098621;28;20465;-64
2022/12/12 05:19:14;;;;;;;36.33;20.87;;;0.10;79.20;;;;;;5098351;28;20471;-64
2022/12/12 05:21:42;;;;;;;34.30;22.00;;;0.10;99.90;;;;;;5098573;28;20547;-64
2022/12/12 05:24:09;;;;;;;34.73;21.03;;;0.10;99.90;;;;;;5098247;28;20471;-64
2022/12/12 05:26:41;;;;;;;36.90;23.20;;;0.10;99.90;;;;;;5085726;28;20551;-65
2022/12/12 05:29:08;;;;;;;36.70;21.80;;;0.10;99.90;;;;;;5077381;28;20530;-64
2022/12/12 05:31:35;;;;;;;33.57;21.77;;;0.10;99.90;;;;;;5077841;28;20552;-65
2022/12/12 05:34:03;;;;;;;34.10;23.77;;;0.00;99.90;;;;;;5078253;28;20595;-65
2022/12/12 05:36:30;;;;;;;36.70;22.60;;;0.00;99.90;;;;;;5077503;28;20438;-65
2022/12/12 05:38:57;;;;;;;35.53;23.13;;;0.00;99.90;;;;;;5078894;28;20555;-65
2022/12/12 05:41:24;;;;;;;39.73;24.50;;;0.00;99.90;;;;;;5078572;28;20554;-65
2022/12/12 05:43:53;;;;;;;36.70;24.53;;;0.00;99.90;;;;;;5078601;28;20497;-65
2022/12/12 05:46:20;;;;;;;33.13;23.40;;;0.00;99.90;;;;;;5078568;28;20527;-65
2022/12/12 05:48:49;;;;;;;38.73;24.53;;;0.00;99.90;;;;;;5077955;28;20439;-65
2022/12/12 05:51:17;;;;;;;34.20;22.30;;;0.10;99.90;;;;;;5078339;28;20469;-65
2022/12/12 05:53:45;;;;;;;39.50;23.70;;;0.00;99.90;;;;;;5078127;28;20471;-65
2022/12/12 05:56:12;;;;;;;36.77;22.07;;;-0.10;99.90;;;;;;5077980;28;20475;-65
2022/12/12 05:58:40;;;;;;;33.70;20.97;;;-0.20;99.90;;;;;;5105084;28;20943;-65
2022/12/12 06:01:09;;;;;;;32.90;22.13;;;-0.10;99.90;;;;;;5118993;28;20741;-65
2022/12/12 06:03:37;;;;;;;38.17;23.10;;;-0.10;1.00;;;;;;5118961;28;20465;-65
2022/12/12 06:06:04;;;;;;;40.50;23.30;;;-0.10;1.00;;;;;;5118987;28;20540;-65
2022/12/12 06:08:32;;;;;;;34.67;21.97;;;-0.10;1.00;;;;;;5115178;28;20884;-65
2022/12/12 06:10:59;;;;;;;35.23;22.43;;;-0.20;1.00;;;;;;5075585;28;20966;-65
2022/12/12 06:13:26;;;;;;;32.03;21.80;;;-0.10;1.00;;;;;;5078192;28;20469;-65
2022/12/12 06:15:54;;;;;;;32.47;20.93;;;-0.10;99.90;;;;;;5079351;28;20946;-65
2022/12/12 06:18:22;;;;;;;33.70;21.30;;;-0.20;99.90;;;;;;5078141;28;20845;-66
2022/12/12 06:20:49;;;;;;;35.63;22.73;;;-0.20;99.90;;;;;;5078825;28;20560;-66
2022/12/12 06:23:17;;;;;;;37.17;21.73;;;0.00;1.00;;;;;;5078968;28;20438;-65
2022/12/12 06:25:44;;;;;;;36.70;21.47;;;0.00;1.00;;;;;;5079203;28;20496;-66
2022/12/12 06:28:11;;;;;;;34.07;22.27;;;0.00;1.00;;;;;;5078434;28;20441;-65
2022/12/12 06:30:38;;;;;;;32.30;20.13;;;0.00;99.90;;;;;;5078630;28;20868;-66
2022/12/12 06:33:05;;;;;;;35.03;22.87;;;0.00;99.90;;;;;;5079126;28;20534;-66
2022/12/12 06:35:34;;;;;;;38.97;23.30;;;0.00;99.90;;;;;;5079141;28;20561;-66
2022/12/12 06:38:01;;;;;;;34.80;23.10;;;0.00;91.30;;;;;;5077254;28;20474;-66
2022/12/12 06:40:29;;;;;;;32.90;20.97;;;0.00;56.80;;;;;;5078602;28;20518;-64
2022/12/12 06:42:56;;;;;;;36.73;22.33;;;0.00;90.40;;;;;;5078830;28;20821;-64
2022/12/12 06:45:23;;;;;;;34.93;22.70;;;0.00;1.00;;;;;;5079597;28;20467;-64
2022/12/12 06:47:51;;;;;;;31.90;20.30;;;-0.20;1.00;;;;;;5078855;28;20465;-64
2022/12/12 06:50:18;;;;;;;33.30;22.07;;;-0.20;1.00;;;;;;5079856;28;20724;-64
2022/12/12 06:52:47;;;;;;;37.23;20.67;;;-0.30;1.00;;;;;;5079262;28;20446;-64
2022/12/12 06:55:14;;;;;;;32.97;21.17;;;-0.40;1.00;;;;;;5079808;28;20580;-64
2022/12/12 06:57:41;;;;;;;36.37;21.37;;;-0.40;20.20;;;;;;5078867;28;20935;-64
2022/12/12 07:00:10;;;;;;;32.47;20.70;;;-0.40;90.10;;;;;;5077785;28;20431;-64
2022/12/12 07:02:37;;;;;;;28.73;20.50;;;-0.50;99.90;;;;;;5078340;28;20530;-64
2022/12/12 07:05:06;;;;;;;32.77;20.87;;;-0.40;99.90;;;;;;5078424;28;20441;-64
2022/12/12 07:07:33;;;;;;;32.53;20.53;;;-0.60;99.90;;;;;;5078152;28;20473;-65
2022/12/12 07:10:02;;;;;;;31.53;19.83;;;-0.60;99.90;;;;;;5077634;28;20465;-65
2022/12/12 07:12:29;;;;;;;36.03;22.13;;;-0.50;1.00;;;;;;5078938;28;20440;-65
2022/12/12 07:14:57;;;;;;;36.17;20.80;;;-0.50;99.90;;;;;;5079760;28;20792;-65
2022/12/12 07:17:24;;;;;;;33.20;21.40;;;-0.60;99.90;;;;;;5079630;28;20502;-65
2022/12/12 07:19:51;;;;;;;35.37;23.07;;;-0.70;99.90;;;;;;5079748;28;20837;-65
2022/12/12 07:22:18;;;;;;;34.67;21.37;;;-0.80;99.90;;;;;;5079587;28;20867;-65
2022/12/12 07:24:46;;;;;;;37.27;23.03;;;-0.80;99.90;;;;;;5079354;28;20911;-65
2022/12/12 07:27:14;;;;;;;35.67;22.33;;;-0.80;99.90;;;;;;5079404;28;20482;-65
2022/12/12 07:29:42;;;;;;;37.57;23.30;;;-0.80;99.90;;;;;;5078638;28;20496;-65
2022/12/12 07:32:09;;;;;;;35.67;23.13;;;-0.80;99.90;;;;;;5078591;28;20481;-65
2022/12/12 07:34:36;;;;;;;39.30;21.57;;;-0.90;99.90;;;;;;5081367;28;20881;-65
2022/12/12 07:37:03;;;;;;;37.20;23.33;;;-1.00;99.90;;;;;;5078627;28;20444;-66
2022/12/12 07:39:31;;;;;;;37.80;22.50;;;-1.10;99.90;;;;;;5079643;28;20560;-66
2022/12/12 07:41:58;;;;;;;32.33;21.33;;;-1.20;99.90;;;;;;5078818;28;20512;-66
2022/12/12 07:44:27;;;;;;;35.93;23.10;;;-1.10;99.90;;;;;;5077957;28;20724;-66
2022/12/12 07:46:57;;;;;;;35.77;23.47;;;-1.10;1.00;;;;;;5079199;28;20490;-66
2022/12/12 07:49:24;;;;;;;35.93;23.87;;;-1.10;1.00;;;;;;5079177;28;20548;-66
2022/12/12 07:51:52;;;;;;;37.53;22.33;;;-1.10;1.00;;;;;;5079105;28;20498;-66
2022/12/12 07:54:19;;;;;;;34.70;22.60;;;-1.10;99.90;;;;;;5078822;28;20557;-66
2022/12/12 07:56:46;;;;;;;35.40;25.57;;;-1.00;1.00;;;;;;5078216;28;20566;-66
2022/12/12 07:59:13;;;;;;;35.40;23.67;;;-1.00;1.00;;;;;;5078767;28;20857;-66
2022/12/12 08:01:42;;;;;;;37.50;23.83;;;-1.10;99.90;;;;;;5079142;28;20469;-66
2022/12/12 08:04:09;;;;;;;38.10;23.00;;;-1.10;99.90;;;;;;5078387;28;20462;-66
2022/12/12 08:06:36;;;;;;;40.33;24.93;;;-1.20;65.00;;;;;;5078151;28;20459;-66
2022/12/12 08:09:04;;;;;;;37.17;23.90;;;-1.30;33.20;;;;;;5077710;28;20552;-66
2022/12/12 08:11:31;;;;;;;42.93;22.90;;;-1.30;4.70;;;;;;5078705;28;20919;-66
2022/12/12 08:13:59;;;;;;;37.03;24.27;;;-1.30;99.90;;;;;;5078353;28;20949;-65
2022/12/12 08:16:28;;;;;;;31.10;20.43;;;-1.20;14.30;;;;;;5078431;28;20466;-65
2022/12/12 08:18:58;;;;;;;43.80;24.30;;;-1.10;99.90;;;;;;5077811;28;20464;-66
2022/12/12 08:21:26;;;;;;;39.70;22.73;;;-1.10;1.00;;;;;;5076916;28;20562;-66
2022/12/12 08:23:56;;;;;;;37.47;22.73;;;-0.90;1.00;;;;;;5077070;28;20501;-66
2022/12/12 08:26:24;;;;;;;36.33;24.67;;;-0.70;1.00;;;;;;5076909;28;20895;-66
2022/12/12 08:28:52;;;;;;;43.07;23.83;;;-0.60;11.20;;;;;;5076025;28;20470;-66
2022/12/12 08:31:21;;;;;;;38.03;23.93;;;-0.50;33.80;;;;;;5076489;28;20441;-66
2022/12/12 08:33:49;;;;;;;40.60;24.10;;;-0.40;13.00;;;;;;5076450;28;20467;-65
2022/12/12 08:36:20;;;;;;;36.17;23.50;;;-0.30;8.70;;;;;;5076798;28;20489;-65
2022/12/12 08:38:47;;;;;;;35.80;21.90;;;-0.10;1.00;;;;;;5078247;28;20507;-65
2022/12/12 08:41:15;;;;;;;38.33;23.73;;;0.00;1.00;;;;;;5081989;28;20540;-65
2022/12/12 08:43:43;;;;;;;40.47;24.20;;;0.20;99.90;;;;;;5095657;28;20558;-64
2022/12/12 08:46:12;;;;;;;38.93;25.20;;;0.30;99.90;;;;;;5098162;28;20547;-64
2022/12/12 08:48:39;;;;;;;37.40;23.97;;;0.40;1.00;;;;;;5098228;28;20828;-64
2022/12/12 08:51:06;;;;;;;35.10;22.27;;;0.50;7.70;;;;;;5098345;28;20538;-64
2022/12/12 08:53:35;;;;;;;34.37;21.93;;;0.50;98.90;;;;;;5097996;28;20448;-64
2022/12/12 08:56:02;;;;;;;33.03;20.03;;;0.60;1.00;;;;;;5098105;28;20969;-64
2022/12/12 08:58:29;;;;;;;39.37;23.10;;;0.70;1.00;;;;;;5097932;28;20952;-64
2022/12/12 09:00:56;;;;;;;29.10;21.00;;;0.60;99.90;;;;;;5098183;28;20470;-64
2022/12/12 09:03:24;;;;;;;36.23;20.90;;;0.50;99.90;;;;;;5097563;28;20555;-64
2022/12/12 09:05:51;;;;;;;33.93;21.50;;;0.60;99.90;;;;;;5098397;28;20499;-63
2022/12/12 09:08:18;;;;;;;36.87;21.93;;;0.60;1.00;;;;;;5091465;28;20540;-63
2022/12/12 09:10:50;;;;;;;35.50;22.57;;;0.70;1.00;;;;;;5076190;28;20498;-63
2022/12/12 09:13:17;;;;;;;32.60;21.53;;;0.90;1.00;;;;;;5076511;28;20440;-63
2022/12/12 09:15:44;;;;;;;32.77;21.57;;;1.00;1.00;;;;;;5077519;28;20492;-63
2022/12/12 09:18:12;;;;;;;29.63;20.50;;;1.20;1.00;;;;;;5077490;28;20537;-63
2022/12/12 09:20:39;;;;;;;31.43;20.37;;;1.30;1.00;;;;;;5076982;28;20530;-64
2022/12/12 09:23:06;;;;;;;30.03;18.73;;;1.30;1.00;;;;;;5077406;28;20556;-64
2022/12/12 09:25:34;;;;;;;33.17;19.00;;;1.30;1.00;;;;;;5077621;28;20523;-64
2022/12/12 09:28:02;;;;;;;36.00;22.07;;;1.50;1.00;;;;;;5077185;28;20824;-64
2022/12/12 09:30:30;;;;;;;30.97;19.53;;;1.50;1.00;;;;;;5077105;28;20582;-64
2022/12/12 09:32:57;;;;;;;30.80;18.60;;;1.50;1.00;;;;;;5077287;28;20461;-64
2022/12/12 09:35:25;;;;;;;31.23;19.03;;;1.50;1.00;;;;;;5077262;28;20862;-64
2022/12/12 09:37:53;;;;;;;31.30;19.87;;;1.60;1.00;;;;;;5077262;28;20462;-64
2022/12/12 09:40:26;;;;;;;30.07;19.47;;;1.70;1.00;;;;;;5077227;28;20556;-64
2022/12/12 09:42:53;;;;;;;31.77;20.07;;;1.90;1.00;;;;;;5077406;28;20540;-64
2022/12/12 09:45:22;;;;;;;32.00;19.57;;;2.00;1.00;;;;;;5077319;28;20866;-64
2022/12/12 09:47:54;;;;;;;29.40;19.13;;;2.10;1.00;;;;;;5081003;28;20476;-64
2022/12/12 09:50:25;;;;;;;32.60;20.50;;;2.20;1.00;;;;;;5081382;28;20475;-65
2022/12/12 09:52:55;;;;;;;27.57;18.50;;;2.10;99.90;;;;;;5080894;28;20552;-65
2022/12/12 09:55:32;;;;;;;26.33;17.70;;;2.20;99.90;;;;;;5081244;28;20528;-65
2022/12/12 09:58:05;;;;;;;27.83;17.80;;;2.50;99.90;;;;;;5080973;28;20460;-65
2022/12/12 10:00:38;;;;;;;27.67;19.00;;;2.60;99.90;;;;;;5080898;28;20539;-65
2022/12/12 10:03:17;;;;;;;30.53;18.00;;;2.80;99.90;;;;;;5080702;28;20534;-65
2022/12/12 10:05:51;;;;;;;26.27;19.30;;;3.00;99.90;;;;;;5080635;28;20457;-65
2022/12/12 10:08:24;;;;;;;24.77;17.20;;;2.90;99.90;;;;;;5080753;28;20497;-65
2022/12/12 10:10:55;;;;;;;24.90;17.63;;;3.00;99.90;;;;;;5081032;28;20476;-65
2022/12/12 10:13:26;;;;;;;26.60;16.90;;;2.90;99.90;;;;;;5080893;28;20563;-65
2022/12/12 10:16:00;;;;;;;27.07;17.10;;;3.00;99.90;;;;;;5080808;28;20586;-65
2022/12/12 10:18:30;;;;;;;26.83;17.70;;;3.10;99.90;;;;;;5080383;28;20493;-65
2022/12/12 10:21:01;;;;;;;26.60;17.13;;;3.10;99.90;;;;;;5080335;28;20496;-65
2022/12/12 10:23:35;;;;;;;24.67;16.70;;;3.30;99.90;;;;;;5080878;28;20547;-65
2022/12/12 10:26:07;;;;;;;25.97;16.93;;;3.30;99.90;;;;;;5080520;28;20798;-66
2022/12/12 10:28:35;;;;;;;23.17;17.03;;;3.30;99.90;;;;;;5080336;28;20469;-65
2022/12/12 10:31:25;;;;;;;21.13;14.70;;;3.50;99.90;;;;;;5059688;28;20439;-65
2022/12/12 10:34:06;;;;;;;23.70;15.37;;;3.60;99.90;;;;;;5060335;28;20502;-66
2022/12/12 10:36:52;;;;;;;20.63;14.67;;;3.90;99.90;;;;;;5060148;28;20588;-65
2022/12/12 10:39:30;;;;;;;22.60;15.40;;;4.10;99.90;;;;;;5062003;28;20436;-65
2022/12/12 10:42:01;;;;;;;22.10;15.40;;;4.30;99.90;;;;;;5067705;28;20497;-65
2022/12/12 10:44:55;;;;;;;22.20;15.00;;;4.50;99.90;;;;;;5074281;28;20518;-66
2022/12/12 10:47:24;;;;;;;19.90;13.90;;;4.50;99.90;;;;;;5077668;28;20739;-66
2022/12/12 10:49:54;;;;;;;20.50;15.03;;;4.70;99.90;;;;;;5078301;28;20560;-66
2022/12/12 10:52:22;;;;;;;20.93;15.40;;;4.90;99.90;;;;;;5078567;28;20547;-66
2022/12/12 10:54:55;;;;;;;22.03;16.17;;;4.90;99.90;;;;;;5078840;28;20547;-66
2022/12/12 10:57:25;;;;;;;21.40;14.33;;;5.00;99.90;;;;;;5078671;28;20493;-66
2022/12/12 10:59:54;;;;;;;19.80;13.50;;;5.20;99.90;;;;;;5078604;28;20902;-66
2022/12/12 11:02:36;;;;;;;22.90;15.43;;;5.40;99.90;;;;;;5077947;28;20493;-66
2022/12/12 11:05:20;;;;;;;19.63;14.67;;;5.50;99.90;;;;;;5078052;28;20428;-66
2022/12/12 11:07:57;;;;;;;17.87;14.47;;;5.60;99.90;;;;;;5078340;28;20461;-66
2022/12/12 11:10:27;;;;;;;17.97;13.90;;;5.60;99.90;;;;;;5077195;28;20475;-66
2022/12/12 11:13:00;;;;;;;20.50;14.57;;;5.60;99.90;;;;;;5078261;28;20461;-66
2022/12/12 11:15:38;;;;;;;18.70;13.60;;;5.70;99.90;;;;;;5079297;28;20432;-66
2022/12/12 11:18:13;;;;;;;21.50;14.40;;;5.80;99.90;;;;;;5079019;28;20467;-66
2022/12/12 11:20:46;;;;;;;19.97;13.17;;;5.80;99.90;;;;;;5079282;28;20467;-66
2022/12/12 11:23:18;;;;;;;18.37;13.80;;;5.80;99.90;;;;;;5079337;28;20474;-66
2022/12/12 11:25:46;;;;;;;20.57;14.70;;;5.90;99.90;;;;;;5079742;28;20457;-66
2022/12/12 11:28:22;;;;;;;19.07;14.70;;;6.00;99.90;;;;;;5079134;28;20492;-66
2022/12/12 11:30:51;;;;;;;15.70;11.50;;;6.10;99.90;;;;;;5078449;28;20535;-65
2022/12/12 11:33:23;;;;;;;19.77;12.27;;;6.20;99.90;;;;;;5079339;28;20465;-65
2022/12/12 11:35:55;;;;;;;17.73;13.50;;;6.20;99.90;;;;;;5079051;28;20489;-65
2022/12/12 11:38:27;;;;;;;16.33;11.80;;;6.20;99.90;;;;;;5078843;28;20749;-66
2022/12/12 11:41:00;;;;;;;20.47;12.47;;;6.00;99.90;;;;;;5079124;28;20449;-65
2022/12/12 11:43:29;;;;;;;15.00;11.03;;;5.70;99.90;;;;;;5079011;28;20467;-65
2022/12/12 11:46:00;;;;;;;18.97;11.87;;;6.00;99.90;;;;;;5078594;28;20458;-65
2022/12/12 11:48:39;;;;;;;17.80;14.17;;;6.20;99.90;;;;;;5078517;28;20555;-65
2022/12/12 11:51:07;;;;;;;16.50;12.30;;;6.40;99.90;;;;;;5078823;28;20750;-65
2022/12/12 11:53:36;;;;;;;17.80;12.07;;;6.60;99.90;;;;;;5078855;28;20485;-65
2022/12/12 11:56:29;;;;;;;16.60;11.83;;;6.80;99.90;;;;;;5093842;28;20494;-65
2022/12/12 11:59:11;;;;;;;15.90;13.17;;;6.50;99.90;;;;;;5098954;28;20467;-66
2022/12/12 12:01:48;;;;;;;16.40;12.40;;;6.70;99.90;;;;;;5099139;28;20933;-65
2022/12/12 12:04:30;;;;;;;17.30;12.77;;;6.90;99.90;;;;;;5098603;28;20507;-65
2022/12/12 12:07:19;;;;;;;20.13;14.57;;;6.80;99.90;;;;;;5098372;28;20950;-65
2022/12/12 12:09:56;;;;;;;20.60;16.50;;;6.80;99.90;;;;;;5097708;28;20503;-65
2022/12/12 12:12:29;;;;;;;18.87;12.60;;;6.80;99.90;;;;;;5098718;28;20476;-65
2022/12/12 12:15:18;;;;;;;19.00;12.73;;;6.90;99.90;;;;;;5098542;28;20464;-65
2022/12/12 12:18:05;;;;;;;17.40;12.00;;;6.80;99.90;;;;;;5094851;28;20484;-65
2022/12/12 12:20:45;;;;;;;17.47;13.70;;;6.90;99.90;;;;;;5097973;28;20540;-65
2022/12/12 12:23:24;;;;;;;15.57;11.80;;;6.90;99.90;;;;;;5097392;28;20897;-65
2022/12/12 12:25:59;;;;;;;16.27;11.60;;;6.90;99.90;;;;;;5098522;28;20457;-65
2022/12/12 12:28:56;;;;;;;17.90;12.00;;;6.50;99.90;;;;;;5095545;28;20451;-64
2022/12/12 12:31:29;;;;;;;20.40;13.10;;;6.00;99.90;;;;;;5075084;28;20423;-64
2022/12/12 12:34:09;;;;;;;15.90;11.73;;;5.60;99.90;;;;;;5087416;28;20453;-64
2022/12/12 12:36:51;;;;;;;14.80;11.23;;;5.10;99.90;;;;;;5077312;28;20481;-64
2022/12/12 12:39:32;;;;;;;16.33;12.20;;;5.00;99.90;;;;;;5077419;28;20457;-64
2022/12/12 12:42:15;;;;;;;19.60;12.80;;;4.80;99.90;;;;;;5077288;28;20461;-64
2022/12/12 12:44:49;;;;;;;16.90;11.50;;;4.80;99.90;;;;;;5077663;28;20461;-64
2022/12/12 12:47:28;;;;;;;23.47;16.90;;;4.60;99.90;;;;;;5077866;28;20560;-64
2022/12/12 12:49:59;;;;;;;15.40;12.03;;;4.60;99.90;;;;;;5076909;28;20461;-64
2022/12/12 12:52:34;;;;;;;62.03;44.77;;;4.50;99.90;;;;;;5074186;28;20519;-63
2022/12/12 12:55:03;;;;;;;18.80;13.90;;;4.50;99.90;;;;;;5075058;28;20465;-64
2022/12/12 12:57:34;;;;;;;17.70;11.50;;;4.50;99.90;;;;;;5074636;28;20463;-64
2022/12/12 13:00:06;;;;;;;19.90;13.20;;;4.40;99.90;;;;;;5074980;28;20442;-64
2022/12/12 13:02:50;;;;;;;15.20;11.03;;;4.50;99.90;;;;;;5075335;28;20489;-64
2022/12/12 13:05:24;;;;;;;15.07;11.80;;;4.30;99.90;;;;;;5074875;28;20543;-63
2022/12/12 13:08:02;;;;;;;16.03;11.50;;;4.10;99.90;;;;;;5075254;28;20880;-64
2022/12/12 13:10:31;;;;;;;16.57;10.93;;;3.70;99.90;;;;;;5075652;28;20500;-64
2022/12/12 13:13:06;;;;;;;19.57;14.50;;;3.70;99.90;;;;;;5074326;28;20567;-64
2022/12/12 13:15:38;;;;;;;18.50;12.90;;;3.60;99.90;;;;;;5073576;28;20431;-64